KOMK/OMK METAR and TAF weather

Enter ICAO airport designator
Station Type Date Time Source
KOMK METAR 2022/01/26 19:53 UTC NOAA

KOMK 261953Z AUTO 01005KT 10SM OVC016 M02/M06 A3041 RMK AO2 SLP316 T10171056


Station Type Date Time Source
KOMK Decoded METAR 2022/01/26 19:53 UTC NOAA

OMAK AIRPORT, WA, United States (KOMK) 48-28N 119-31W 395M
Jan 26, 2022 - 02:53 PM EST / 2022.01.26 1953 UTC
Wind: from the N (010 degrees) at 6 MPH (5 KT):0
Visibility: 10 mile(s):0
Sky conditions: overcast
Temperature: 28.9 F (-1.7 C)
Windchill: 23 F (-5 C):1
Dew Point: 21.9 F (-5.6 C)
Relative Humidity: 74%
Pressure (altimeter): 30.41 in. Hg (1029 hPa)
ob: KOMK 261953Z AUTO 01005KT 10SM OVC016 M02/M06 A3041 RMK AO2 SLP316 T10171056
cycle: 20

Station Type Date Time Source
KOMK TAF UTC NOAA

Error!

Example: see airport list